This is the latest recevied weather packets stored in our database for station/object KN4MGS. If no packets are shown the sender has not sent any weather packets the latest 10 day(s).
| Time | Temp. | Humidity | Pressure | Rain* | Wind** | Luminosity | Snow |
|---|---|---|---|---|---|---|---|
| 1777925739 | 26.67° C | 33% | 1017.7 hPa | 0 mm | - | 531 W/m² | - |
| 1777925438 | 26.67° C | 32% | 1017.9 hPa | 0 mm | - | 588 W/m² | - |
| 1777925133 | 26.67° C | 33% | 1017.9 hPa | 0 mm | - | 602 W/m² | - |
| 1777924831 | 26.67° C | 32% | 1017.9 hPa | 0 mm | - | 556 W/m² | - |
| 1777924526 | 26.67° C | 33% | 1017.9 hPa | 0 mm | - | 556 W/m² | - |
| 1777924223 | 26.67° C | 36% | 1018 hPa | 0 mm | - | 593 W/m² | - |
| 1777923920 | 26.67° C | 34% | 1017.9 hPa | 0 mm | - | 635 W/m² | - |
| 1777923615 | 26.67° C | 36% | 1018.1 hPa | 0 mm | - | 646 W/m² | - |
| 1777923312 | 27.78° C | 33% | 1017.9 hPa | 0 mm | - | 672 W/m² | - |
| 1777923011 | 26.67° C | 34% | 1018.1 hPa | 0 mm | - | 672 W/m² | - |
| 1777922709 | 26.67° C | 35% | 1018.3 hPa | 0 mm | - | 688 W/m² | - |
| 1777922407 | 26.67° C | 32% | 1018.3 hPa | 0 mm | - | 691 W/m² | - |
| 1777922104 | 26.67° C | 33% | 1018.5 hPa | 0 mm | - | 588 W/m² | - |
| 1777921800 | 27.22° C | 34% | 1018.5 hPa | 0 mm | - | 668 W/m² | - |
| 1777921496 | 26.67° C | 34% | 1018.7 hPa | 0 mm | - | 706 W/m² | - |
| 1777921192 | 26.11° C | 34% | 1018.5 hPa | 0 mm | - | 710 W/m² | - |
| 1777920889 | 25.56° C | 36% | 1018.6 hPa | 0 mm | - | 708 W/m² | - |
| 1777920585 | 25.56° C | 36% | 1018.9 hPa | 0 mm | - | 734 W/m² | - |
| 1777920281 | 26.67° C | 35% | 1018.7 hPa | 0 mm | - | 711 W/m² | - |
| 1777919977 | 25.56° C | 36% | 1018.8 hPa | 0 mm | - | 664 W/m² | - |
| 1777919674 | 26.11° C | 35% | 1018.5 hPa | 0 mm | - | 687 W/m² | - |
| 1777919373 | 25.56° C | 37% | 1019 hPa | 0 mm | - | 707 W/m² | - |
| 1777919069 | 25.56° C | 36% | 1019 hPa | 0 mm | - | 766 W/m² | - |
| 1777918767 | 26.11° C | 37% | 1019 hPa | 0 mm | - | 751 W/m² | - |
| 1777918464 | 25.56° C | 39% | 1019.1 hPa | 0 mm | - | 740 W/m² | - |
* Rain latest hour (hover to see other rain measurements)
** Current wind speed in m/s (hover to see current wind gust speed)